sensor_id;sensor_type;location;lat;lon;timestamp;pressure;altitude;pressure_sealevel;temperature;humidity
61357;BME280;47227;46.752;23.576;2022-12-11T00:00:53;94043.96;;;11.69;72.03
61357;BME280;47227;46.752;23.576;2022-12-11T00:03:39;94038.04;;;11.67;72.20
61357;BME280;47227;46.752;23.576;2022-12-11T00:06:09;94027.93;;;11.64;72.52
61357;BME280;47227;46.752;23.576;2022-12-11T00:08:38;94018.22;;;11.60;72.31
61357;BME280;47227;46.752;23.576;2022-12-11T00:11:07;94012.87;;;11.56;72.47
61357;BME280;47227;46.752;23.576;2022-12-11T00:13:36;94010.32;;;11.53;72.49
61357;BME280;47227;46.752;23.576;2022-12-11T00:16:04;94011.77;;;11.50;72.60
61357;BME280;47227;46.752;23.576;2022-12-11T00:18:31;94007.99;;;11.48;72.80
61357;BME280;47227;46.752;23.576;2022-12-11T00:21:01;93996.51;;;11.44;72.85
61357;BME280;47227;46.752;23.576;2022-12-11T00:23:29;93994.18;;;11.40;73.06
61357;BME280;47227;46.752;23.576;2022-12-11T00:25:57;93994.08;;;11.38;73.09
61357;BME280;47227;46.752;23.576;2022-12-11T00:28:25;93993.84;;;11.36;73.48
61357;BME280;47227;46.752;23.576;2022-12-11T00:30:53;93988.47;;;11.33;73.65
61357;BME280;47227;46.752;23.576;2022-12-11T00:33:21;93974.98;;;11.34;73.67
61357;BME280;47227;46.752;23.576;2022-12-11T00:35:49;93974.98;;;11.35;73.85
61357;BME280;47227;46.752;23.576;2022-12-11T00:38:20;93979.02;;;11.38;73.66
61357;BME280;47227;46.752;23.576;2022-12-11T00:40:48;93975.88;;;11.43;73.36
61357;BME280;47227;46.752;23.576;2022-12-11T00:43:16;93972.89;;;11.49;73.28
61357;BME280;47227;46.752;23.576;2022-12-11T00:45:45;93972.92;;;11.55;73.34
61357;BME280;47227;46.752;23.576;2022-12-11T00:48:13;93972.73;;;11.59;73.14
61357;BME280;47227;46.752;23.576;2022-12-11T00:50:41;93963.12;;;11.63;73.14
61357;BME280;47227;46.752;23.576;2022-12-11T00:53:09;93959.49;;;11.66;72.74
61357;BME280;47227;46.752;23.576;2022-12-11T00:55:39;93953.56;;;11.69;72.95
61357;BME280;47227;46.752;23.576;2022-12-11T00:58:08;93951.86;;;11.70;72.41
61357;BME280;47227;46.752;23.576;2022-12-11T01:00:36;93936.73;;;11.68;72.62
61357;BME280;47227;46.752;23.576;2022-12-11T01:03:05;93938.67;;;11.68;72.62
61357;BME280;47227;46.752;23.576;2022-12-11T01:05:33;93933.49;;;11.66;72.77
61357;BME280;47227;46.752;23.576;2022-12-11T01:08:02;93937.91;;;11.66;72.86
61357;BME280;47227;46.752;23.576;2022-12-11T01:10:30;93942.73;;;11.65;73.24
61357;BME280;47227;46.752;23.576;2022-12-11T01:13:02;93939.64;;;11.63;73.06
61357;BME280;47227;46.752;23.576;2022-12-11T01:15:40;93935.08;;;11.56;73.31
61357;BME280;47227;46.752;23.576;2022-12-11T01:18:10;93938.27;;;11.53;73.39
61357;BME280;47227;46.752;23.576;2022-12-11T01:20:41;93938.54;;;11.49;73.59
61357;BME280;47227;46.752;23.576;2022-12-11T01:23:11;93935.64;;;11.44;73.93
61357;BME280;47227;46.752;23.576;2022-12-11T01:25:40;93925.84;;;11.42;74.19
61357;BME280;47227;46.752;23.576;2022-12-11T01:28:09;93925.58;;;11.40;74.42
61357;BME280;47227;46.752;23.576;2022-12-11T01:30:39;93931.19;;;11.37;74.82
61357;BME280;47227;46.752;23.576;2022-12-11T01:33:07;93929.28;;;11.34;74.84
61357;BME280;47227;46.752;23.576;2022-12-11T01:35:37;93924.21;;;11.28;75.62
61357;BME280;47227;46.752;23.576;2022-12-11T01:38:08;93915.17;;;11.22;76.26
61357;BME280;47227;46.752;23.576;2022-12-11T01:40:36;93920.91;;;11.19;76.49
61357;BME280;47227;46.752;23.576;2022-12-11T01:43:04;93916.46;;;11.17;76.99
61357;BME280;47227;46.752;23.576;2022-12-11T01:45:38;93916.30;;;11.14;77.54
61357;BME280;47227;46.752;23.576;2022-12-11T01:48:12;93914.61;;;11.12;78.27
61357;BME280;47227;46.752;23.576;2022-12-11T01:50:47;93910.91;;;11.15;77.94
61357;BME280;47227;46.752;23.576;2022-12-11T01:53:20;93907.73;;;11.16;78.37
61357;BME280;47227;46.752;23.576;2022-12-11T01:55:52;93903.44;;;11.18;79.14
61357;BME280;47227;46.752;23.576;2022-12-11T01:58:28;93897.52;;;11.19;79.40
61357;BME280;47227;46.752;23.576;2022-12-11T02:00:59;93899.45;;;11.21;79.97
61357;BME280;47227;46.752;23.576;2022-12-11T02:03:29;93896.52;;;11.22;80.01
61357;BME280;47227;46.752;23.576;2022-12-11T02:05:59;93893.73;;;11.23;80.00
61357;BME280;47227;46.752;23.576;2022-12-11T02:08:27;93888.13;;;11.22;80.21
61357;BME280;47227;46.752;23.576;2022-12-11T02:11:10;93886.80;;;11.19;80.79
61357;BME280;47227;46.752;23.576;2022-12-11T02:13:56;93882.89;;;11.14;80.98
61357;BME280;47227;46.752;23.576;2022-12-11T02:16:37;93882.52;;;11.05;81.68
61357;BME280;47227;46.752;23.576;2022-12-11T02:19:16;93872.61;;;11.00;81.33
61357;BME280;47227;46.752;23.576;2022-12-11T02:21:49;93865.09;;;10.93;81.70
61357;BME280;47227;46.752;23.576;2022-12-11T02:24:38;93862.29;;;10.85;81.90
61357;BME280;47227;46.752;23.576;2022-12-11T02:27:25;93856.95;;;10.77;81.85
61357;BME280;47227;46.752;23.576;2022-12-11T02:30:05;93852.27;;;10.67;81.91
61357;BME280;47227;46.752;23.576;2022-12-11T02:32:46;93851.40;;;10.57;82.42
61357;BME280;47227;46.752;23.576;2022-12-11T02:35:20;93850.20;;;10.51;82.28
61357;BME280;47227;46.752;23.576;2022-12-11T02:37:54;93843.95;;;10.45;82.51
61357;BME280;47227;46.752;23.576;2022-12-11T02:40:27;93842.61;;;10.40;83.08
61357;BME280;47227;46.752;23.576;2022-12-11T02:42:59;93833.36;;;10.35;82.96
61357;BME280;47227;46.752;23.576;2022-12-11T02:45:30;93827.95;;;10.32;83.47
61357;BME280;47227;46.752;23.576;2022-12-11T02:48:02;93824.75;;;10.27;83.70
61357;BME280;47227;46.752;23.576;2022-12-11T02:50:31;93825.04;;;10.24;84.28
61357;BME280;47227;46.752;23.576;2022-12-11T02:53:01;93821.82;;;10.21;84.41
61357;BME280;47227;46.752;23.576;2022-12-11T02:55:31;93827.14;;;10.20;84.39
61357;BME280;47227;46.752;23.576;2022-12-11T02:58:04;93826.53;;;10.16;85.15
61357;BME280;47227;46.752;23.576;2022-12-11T03:00:34;93828.09;;;10.12;85.12
61357;BME280;47227;46.752;23.576;2022-12-11T03:03:03;93829.23;;;10.08;84.74
61357;BME280;47227;46.752;23.576;2022-12-11T03:05:31;93825.07;;;10.04;85.50
61357;BME280;47227;46.752;23.576;2022-12-11T03:08:00;93824.41;;;9.99;85.24
61357;BME280;47227;46.752;23.576;2022-12-11T03:10:28;93819.98;;;9.94;85.18
61357;BME280;47227;46.752;23.576;2022-12-11T03:12:57;93817.65;;;9.89;85.10
61357;BME280;47227;46.752;23.576;2022-12-11T03:15:37;93815.66;;;9.85;84.93
61357;BME280;47227;46.752;23.576;2022-12-11T03:18:15;93822.35;;;9.84;85.86
61357;BME280;47227;46.752;23.576;2022-12-11T03:20:46;93816.42;;;9.82;86.20
61357;BME280;47227;46.752;23.576;2022-12-11T03:23:26;93810.24;;;9.81;86.12
61357;BME280;47227;46.752;23.576;2022-12-11T03:26:01;93809.81;;;9.81;86.22
61357;BME280;47227;46.752;23.576;2022-12-11T03:28:38;93803.77;;;9.82;86.51
61357;BME280;47227;46.752;23.576;2022-12-11T03:31:13;93800.66;;;9.82;86.57
61357;BME280;47227;46.752;23.576;2022-12-11T03:33:46;93797.03;;;9.83;86.29
61357;BME280;47227;46.752;23.576;2022-12-11T03:36:21;93788.66;;;9.85;86.36
61357;BME280;47227;46.752;23.576;2022-12-11T03:38:57;93779.46;;;9.86;86.50
61357;BME280;47227;46.752;23.576;2022-12-11T03:41:28;93767.75;;;9.86;87.50
61357;BME280;47227;46.752;23.576;2022-12-11T03:43:57;93764.41;;;9.85;87.26
61357;BME280;47227;46.752;23.576;2022-12-11T03:46:30;93761.52;;;9.84;87.01
61357;BME280;47227;46.752;23.576;2022-12-11T03:49:04;93754.96;;;9.80;87.30
61357;BME280;47227;46.752;23.576;2022-12-11T03:51:34;93752.77;;;9.79;87.48
61357;BME280;47227;46.752;23.576;2022-12-11T03:54:03;93749.87;;;9.73;87.37
61357;BME280;47227;46.752;23.576;2022-12-11T03:56:33;93745.25;;;9.68;87.25
61357;BME280;47227;46.752;23.576;2022-12-11T03:59:02;93741.38;;;9.64;87.13
61357;BME280;47227;46.752;23.576;2022-12-11T04:01:30;93744.61;;;9.60;86.76
61357;BME280;47227;46.752;23.576;2022-12-11T04:03:57;93744.39;;;9.56;87.31
61357;BME280;47227;46.752;23.576;2022-12-11T04:06:26;93744.88;;;9.50;87.19
61357;BME280;47227;46.752;23.576;2022-12-11T04:08:54;93735.67;;;9.44;87.63
61357;BME280;47227;46.752;23.576;2022-12-11T04:11:21;93728.58;;;9.39;87.83
61357;BME280;47227;46.752;23.576;2022-12-11T04:14:08;93727.80;;;9.37;88.31
61357;BME280;47227;46.752;23.576;2022-12-11T04:16:47;93726.88;;;9.36;90.57
61357;BME280;47227;46.752;23.576;2022-12-11T04:19:16;93723.05;;;9.38;89.93
61357;BME280;47227;46.752;23.576;2022-12-11T04:21:58;93718.86;;;9.41;89.78
61357;BME280;47227;46.752;23.576;2022-12-11T04:24:38;93719.70;;;9.44;90.23
61357;BME280;47227;46.752;23.576;2022-12-11T04:27:06;93718.26;;;9.47;90.57
61357;BME280;47227;46.752;23.576;2022-12-11T04:29:34;93713.11;;;9.50;90.75
61357;BME280;47227;46.752;23.576;2022-12-11T04:32:02;93719.53;;;9.55;90.03
61357;BME280;47227;46.752;23.576;2022-12-11T04:34:30;93714.67;;;9.58;90.36
61357;BME280;47227;46.752;23.576;2022-12-11T04:36:58;93712.89;;;9.59;90.72
61357;BME280;47227;46.752;23.576;2022-12-11T04:39:26;93714.89;;;9.60;90.05
61357;BME280;47227;46.752;23.576;2022-12-11T04:41:54;93714.06;;;9.62;89.97
61357;BME280;47227;46.752;23.576;2022-12-11T04:44:21;93718.17;;;9.64;89.67
61357;BME280;47227;46.752;23.576;2022-12-11T04:46:49;93717.52;;;9.67;90.07
61357;BME280;47227;46.752;23.576;2022-12-11T04:49:17;93709.61;;;9.67;89.61
61357;BME280;47227;46.752;23.576;2022-12-11T04:51:45;93713.20;;;9.68;89.79
61357;BME280;47227;46.752;23.576;2022-12-11T04:54:13;93720.92;;;9.69;90.33
61357;BME280;47227;46.752;23.576;2022-12-11T04:56:40;93722.66;;;9.71;89.72
61357;BME280;47227;46.752;23.576;2022-12-11T04:59:08;93719.95;;;9.74;90.26
61357;BME280;47227;46.752;23.576;2022-12-11T05:01:36;93715.73;;;9.77;89.91
61357;BME280;47227;46.752;23.576;2022-12-11T05:04:04;93716.82;;;9.79;89.93
61357;BME280;47227;46.752;23.576;2022-12-11T05:06:32;93717.47;;;9.80;89.52
61357;BME280;47227;46.752;23.576;2022-12-11T05:09:00;93719.45;;;9.81;89.69
61357;BME280;47227;46.752;23.576;2022-12-11T05:11:28;93715.75;;;9.82;89.37
61357;BME280;47227;46.752;23.576;2022-12-11T05:13:56;93717.45;;;9.83;89.74
61357;BME280;47227;46.752;23.576;2022-12-11T05:16:24;93717.66;;;9.83;90.33
61357;BME280;47227;46.752;23.576;2022-12-11T05:18:52;93716.05;;;9.80;90.05
61357;BME280;47227;46.752;23.576;2022-12-11T05:21:19;93717.50;;;9.79;90.19
61357;BME280;47227;46.752;23.576;2022-12-11T05:23:47;93719.41;;;9.80;89.94
61357;BME280;47227;46.752;23.576;2022-12-11T05:26:18;93719.10;;;9.82;89.79
61357;BME280;47227;46.752;23.576;2022-12-11T05:28:50;93714.46;;;9.85;89.98
61357;BME280;47227;46.752;23.576;2022-12-11T05:31:22;93719.54;;;9.88;90.16
61357;BME280;47227;46.752;23.576;2022-12-11T05:33:52;93717.73;;;9.93;90.21
61357;BME280;47227;46.752;23.576;2022-12-11T05:36:23;93714.36;;;9.98;90.55
61357;BME280;47227;46.752;23.576;2022-12-11T05:38:52;93716.37;;;10.03;90.39
61357;BME280;47227;46.752;23.576;2022-12-11T05:41:22;93718.05;;;10.08;90.26
61357;BME280;47227;46.752;23.576;2022-12-11T05:43:51;93722.46;;;10.15;90.32
61357;BME280;47227;46.752;23.576;2022-12-11T05:46:21;93726.45;;;10.12;90.75
61357;BME280;47227;46.752;23.576;2022-12-11T05:48:54;93728.72;;;10.11;90.21
61357;BME280;47227;46.752;23.576;2022-12-11T05:51:22;93730.12;;;10.12;89.78
61357;BME280;47227;46.752;23.576;2022-12-11T05:53:51;93724.62;;;10.14;89.78
61357;BME280;47227;46.752;23.576;2022-12-11T05:56:22;93726.43;;;10.19;90.19
61357;BME280;47227;46.752;23.576;2022-12-11T05:58:51;93721.27;;;10.22;89.93
61357;BME280;47227;46.752;23.576;2022-12-11T06:01:25;93721.11;;;10.22;89.87
61357;BME280;47227;46.752;23.576;2022-12-11T06:03:55;93723.84;;;10.17;89.85
61357;BME280;47227;46.752;23.576;2022-12-11T06:06:24;93723.85;;;10.14;89.66
61357;BME280;47227;46.752;23.576;2022-12-11T06:08:55;93727.20;;;10.14;89.74
61357;BME280;47227;46.752;23.576;2022-12-11T06:11:24;93729.70;;;10.16;89.96
61357;BME280;47227;46.752;23.576;2022-12-11T06:13:53;93730.71;;;10.17;89.90
61357;BME280;47227;46.752;23.576;2022-12-11T06:16:21;93732.02;;;10.20;89.67
61357;BME280;47227;46.752;23.576;2022-12-11T06:18:50;93729.21;;;10.22;89.75
61357;BME280;47227;46.752;23.576;2022-12-11T06:21:26;93732.93;;;10.27;89.43
61357;BME280;47227;46.752;23.576;2022-12-11T06:23:58;93738.54;;;10.33;88.95
61357;BME280;47227;46.752;23.576;2022-12-11T06:26:26;93761.66;;;10.37;89.14
61357;BME280;47227;46.752;23.576;2022-12-11T06:28:54;93773.19;;;10.39;88.83
61357;BME280;47227;46.752;23.576;2022-12-11T06:31:22;93774.08;;;10.32;88.19
61357;BME280;47227;46.752;23.576;2022-12-11T06:33:50;93780.52;;;10.25;88.31
61357;BME280;47227;46.752;23.576;2022-12-11T06:36:20;93780.67;;;10.03;89.87
61357;BME280;47227;46.752;23.576;2022-12-11T06:38:49;93782.52;;;10.03;88.96
61357;BME280;47227;46.752;23.576;2022-12-11T06:41:17;93780.27;;;9.99;88.74
61357;BME280;47227;46.752;23.576;2022-12-11T06:43:45;93781.08;;;9.98;87.53
61357;BME280;47227;46.752;23.576;2022-12-11T06:46:16;93789.33;;;10.03;86.85
61357;BME280;47227;46.752;23.576;2022-12-11T06:48:45;93794.61;;;10.09;84.78
61357;BME280;47227;46.752;23.576;2022-12-11T06:51:17;93798.91;;;10.14;81.55
61357;BME280;47227;46.752;23.576;2022-12-11T06:53:50;93809.41;;;10.20;80.62
61357;BME280;47227;46.752;23.576;2022-12-11T06:56:20;93806.02;;;10.23;78.52
61357;BME280;47227;46.752;23.576;2022-12-11T06:58:48;93796.31;;;10.25;77.78
61357;BME280;47227;46.752;23.576;2022-12-11T07:01:19;93791.91;;;10.27;76.06
61357;BME280;47227;46.752;23.576;2022-12-11T07:03:47;93793.61;;;10.29;74.98
61357;BME280;47227;46.752;23.576;2022-12-11T07:06:15;93799.03;;;10.29;74.07
61357;BME280;47227;46.752;23.576;2022-12-11T07:08:45;93800.64;;;10.32;73.48
61357;BME280;47227;46.752;23.576;2022-12-11T07:11:15;93804.49;;;10.33;73.02
61357;BME280;47227;46.752;23.576;2022-12-11T07:13:43;93807.02;;;10.31;73.46
61357;BME280;47227;46.752;23.576;2022-12-11T07:16:13;93811.88;;;10.27;73.05
61357;BME280;47227;46.752;23.576;2022-12-11T07:18:46;93814.83;;;10.22;72.04
61357;BME280;47227;46.752;23.576;2022-12-11T07:21:14;93820.80;;;10.18;72.40
61357;BME280;47227;46.752;23.576;2022-12-11T07:23:42;93828.40;;;10.12;71.86
61357;BME280;47227;46.752;23.576;2022-12-11T07:26:13;93836.21;;;10.07;71.68
61357;BME280;47227;46.752;23.576;2022-12-11T07:28:42;93837.79;;;10.01;71.79
61357;BME280;47227;46.752;23.576;2022-12-11T07:31:15;93843.43;;;9.95;71.31
61357;BME280;47227;46.752;23.576;2022-12-11T07:33:43;93850.27;;;9.87;70.45
61357;BME280;47227;46.752;23.576;2022-12-11T07:36:12;93856.72;;;9.83;69.19
61357;BME280;47227;46.752;23.576;2022-12-11T07:38:40;93862.27;;;9.79;69.89
61357;BME280;47227;46.752;23.576;2022-12-11T07:41:11;93857.91;;;9.73;69.86
61357;BME280;47227;46.752;23.576;2022-12-11T07:43:40;93867.17;;;9.67;69.87
61357;BME280;47227;46.752;23.576;2022-12-11T07:46:18;93879.42;;;9.61;69.23
61357;BME280;47227;46.752;23.576;2022-12-11T07:48:47;93882.04;;;9.55;68.79
61357;BME280;47227;46.752;23.576;2022-12-11T07:51:24;93888.48;;;9.47;69.01
61357;BME280;47227;46.752;23.576;2022-12-11T07:53:56;93897.02;;;9.40;69.60
61357;BME280;47227;46.752;23.576;2022-12-11T07:56:26;93915.73;;;9.32;69.91
61357;BME280;47227;46.752;23.576;2022-12-11T07:58:54;93930.67;;;9.24;69.61
61357;BME280;47227;46.752;23.576;2022-12-11T08:01:24;93936.14;;;9.16;70.15
61357;BME280;47227;46.752;23.576;2022-12-11T08:03:53;93939.43;;;9.08;70.80
61357;BME280;47227;46.752;23.576;2022-12-11T08:06:27;93939.48;;;9.03;70.72
61357;BME280;47227;46.752;23.576;2022-12-11T08:08:57;93940.56;;;8.99;70.76
61357;BME280;47227;46.752;23.576;2022-12-11T08:11:25;93946.94;;;8.97;70.83
61357;BME280;47227;46.752;23.576;2022-12-11T08:13:54;93956.55;;;8.93;70.75
61357;BME280;47227;46.752;23.576;2022-12-11T08:16:22;93959.98;;;8.85;71.06
61357;BME280;47227;46.752;23.576;2022-12-11T08:18:51;93972.61;;;8.79;70.72
61357;BME280;47227;46.752;23.576;2022-12-11T08:21:21;93983.63;;;8.68;71.03
61357;BME280;47227;46.752;23.576;2022-12-11T08:23:50;93992.86;;;8.59;70.73
61357;BME280;47227;46.752;23.576;2022-12-11T08:26:28;94007.63;;;8.51;70.84
61357;BME280;47227;46.752;23.576;2022-12-11T08:28:57;94029.71;;;8.43;71.16
61357;BME280;47227;46.752;23.576;2022-12-11T08:31:25;94041.72;;;8.36;71.10
61357;BME280;47227;46.752;23.576;2022-12-11T08:33:54;94048.59;;;8.28;70.89
61357;BME280;47227;46.752;23.576;2022-12-11T08:36:24;94061.08;;;8.21;71.09
61357;BME280;47227;46.752;23.576;2022-12-11T08:38:54;94063.88;;;8.13;71.01
61357;BME280;47227;46.752;23.576;2022-12-11T08:41:25;94062.93;;;8.07;70.71
61357;BME280;47227;46.752;23.576;2022-12-11T08:43:54;94054.18;;;8.02;71.17
61357;BME280;47227;46.752;23.576;2022-12-11T08:46:26;94047.77;;;7.98;71.18
61357;BME280;47227;46.752;23.576;2022-12-11T08:48:57;94051.20;;;7.96;70.83
61357;BME280;47227;46.752;23.576;2022-12-11T08:51:28;94061.02;;;7.95;71.13
61357;BME280;47227;46.752;23.576;2022-12-11T08:54:02;94067.66;;;7.98;71.33
61357;BME280;47227;46.752;23.576;2022-12-11T08:56:30;94065.35;;;7.99;71.13
61357;BME280;47227;46.752;23.576;2022-12-11T08:58:59;94072.42;;;8.04;70.77
61357;BME280;47227;46.752;23.576;2022-12-11T09:01:28;94086.37;;;8.08;70.76
61357;BME280;47227;46.752;23.576;2022-12-11T09:03:56;94088.98;;;8.10;70.67
61357;BME280;47227;46.752;23.576;2022-12-11T09:06:27;94100.24;;;8.08;68.36
61357;BME280;47227;46.752;23.576;2022-12-11T09:08:58;94095.52;;;8.06;68.46
61357;BME280;47227;46.752;23.576;2022-12-11T09:11:30;94103.27;;;8.05;68.70
61357;BME280;47227;46.752;23.576;2022-12-11T09:13:59;94117.30;;;8.03;69.00
61357;BME280;47227;46.752;23.576;2022-12-11T09:16:37;94137.70;;;8.00;68.85
61357;BME280;47227;46.752;23.576;2022-12-11T09:19:11;94151.98;;;7.97;68.97
61357;BME280;47227;46.752;23.576;2022-12-11T09:21:42;94160.30;;;7.93;68.97
61357;BME280;47227;46.752;23.576;2022-12-11T09:24:11;94159.77;;;7.85;69.25
61357;BME280;47227;46.752;23.576;2022-12-11T09:26:40;94155.90;;;7.78;69.22
61357;BME280;47227;46.752;23.576;2022-12-11T09:29:09;94154.29;;;7.73;69.51
61357;BME280;47227;46.752;23.576;2022-12-11T09:31:37;94155.25;;;7.72;68.83
61357;BME280;47227;46.752;23.576;2022-12-11T09:34:09;94151.02;;;7.68;66.92
61357;BME280;47227;46.752;23.576;2022-12-11T09:36:39;94159.64;;;7.62;65.92
61357;BME280;47227;46.752;23.576;2022-12-11T09:39:10;94156.98;;;7.62;65.10
61357;BME280;47227;46.752;23.576;2022-12-11T09:41:57;94165.67;;;7.60;64.79
61357;BME280;47227;46.752;23.576;2022-12-11T09:44:36;94174.30;;;7.59;65.46
61357;BME280;47227;46.752;23.576;2022-12-11T09:47:17;94166.64;;;7.62;65.05
61357;BME280;47227;46.752;23.576;2022-12-11T09:49:49;94160.02;;;7.65;64.56
61357;BME280;47227;46.752;23.576;2022-12-11T09:52:22;94177.00;;;7.68;64.97
61357;BME280;47227;46.752;23.576;2022-12-11T09:54:57;94203.29;;;7.74;64.73
61357;BME280;47227;46.752;23.576;2022-12-11T10:00:38;94234.50;;;7.82;64.57
61357;BME280;47227;46.752;23.576;2022-12-11T10:03:25;94244.06;;;7.85;64.58
61357;BME280;47227;46.752;23.576;2022-12-11T10:06:20;94237.42;;;7.87;64.19
61357;BME280;47227;46.752;23.576;2022-12-11T10:11:57;94220.08;;;7.92;64.58
61357;BME280;47227;46.752;23.576;2022-12-11T10:17:27;94236.16;;;7.92;64.52
61357;BME280;47227;46.752;23.576;2022-12-11T10:19:57;94235.34;;;7.95;64.89
61357;BME280;47227;46.752;23.576;2022-12-11T10:22:30;94240.24;;;8.00;65.29
61357;BME280;47227;46.752;23.576;2022-12-11T10:25:02;94239.16;;;8.03;64.10
61357;BME280;47227;46.752;23.576;2022-12-11T10:27:39;94236.33;;;7.99;63.05
61357;BME280;47227;46.752;23.576;2022-12-11T10:30:23;94239.41;;;7.99;62.50
61357;BME280;47227;46.752;23.576;2022-12-11T10:33:17;94241.82;;;8.03;63.41
61357;BME280;47227;46.752;23.576;2022-12-11T10:35:50;94241.47;;;7.90;61.18
61357;BME280;47227;46.752;23.576;2022-12-11T10:38:23;94250.71;;;7.89;61.88
61357;BME280;47227;46.752;23.576;2022-12-11T10:40:57;94264.81;;;7.96;63.17
61357;BME280;47227;46.752;23.576;2022-12-11T10:43:37;94270.98;;;7.97;61.21
61357;BME280;47227;46.752;23.576;2022-12-11T10:46:19;94273.98;;;7.95;60.77
61357;BME280;47227;46.752;23.576;2022-12-11T10:48:50;94275.16;;;8.00;61.00
61357;BME280;47227;46.752;23.576;2022-12-11T10:51:23;94282.02;;;7.85;61.67
61357;BME280;47227;46.752;23.576;2022-12-11T10:54:02;94276.83;;;7.48;63.68
61357;BME280;47227;46.752;23.576;2022-12-11T10:56:35;94274.40;;;7.23;64.76
61357;BME280;47227;46.752;23.576;2022-12-11T10:59:06;94271.41;;;6.94;65.72
61357;BME280;47227;46.752;23.576;2022-12-11T11:01:34;94275.92;;;6.77;66.12
61357;BME280;47227;46.752;23.576;2022-12-11T11:04:05;94287.19;;;6.61;66.71
61357;BME280;47227;46.752;23.576;2022-12-11T11:06:33;94297.85;;;6.34;67.58
61357;BME280;47227;46.752;23.576;2022-12-11T11:09:03;94316.00;;;6.18;67.81
61357;BME280;47227;46.752;23.576;2022-12-11T11:11:33;94324.43;;;6.05;67.34
61357;BME280;47227;46.752;23.576;2022-12-11T11:16:48;94332.60;;;5.86;68.30
61357;BME280;47227;46.752;23.576;2022-12-11T11:19:23;94333.91;;;5.79;68.12
61357;BME280;47227;46.752;23.576;2022-12-11T11:21:55;94346.33;;;5.86;68.10
61357;BME280;47227;46.752;23.576;2022-12-11T11:24:34;94354.84;;;6.06;68.01
61357;BME280;47227;46.752;23.576;2022-12-11T11:27:11;94366.16;;;6.14;67.18
61357;BME280;47227;46.752;23.576;2022-12-11T11:29:40;94369.98;;;6.49;65.83
61357;BME280;47227;46.752;23.576;2022-12-11T11:32:22;94368.81;;;6.71;64.99
61357;BME280;47227;46.752;23.576;2022-12-11T11:35:05;94379.27;;;6.40;65.00
61357;BME280;47227;46.752;23.576;2022-12-11T11:37:33;94377.11;;;6.27;65.35
61357;BME280;47227;46.752;23.576;2022-12-11T11:40:10;94373.16;;;6.22;65.21
61357;BME280;47227;46.752;23.576;2022-12-11T11:42:46;94365.98;;;6.84;64.16
61357;BME280;47227;46.752;23.576;2022-12-11T11:45:25;94378.55;;;7.06;63.05
61357;BME280;47227;46.752;23.576;2022-12-11T11:48:23;94391.64;;;6.59;63.86
61357;BME280;47227;46.752;23.576;2022-12-11T11:50:53;94403.43;;;6.54;63.99
61357;BME280;47227;46.752;23.576;2022-12-11T11:53:29;94407.37;;;6.73;63.99
61357;BME280;47227;46.752;23.576;2022-12-11T11:56:15;94419.14;;;6.73;63.37
61357;BME280;47227;46.752;23.576;2022-12-11T11:58:59;94419.17;;;6.74;64.08
61357;BME280;47227;46.752;23.576;2022-12-11T12:01:30;94425.21;;;6.90;63.33
61357;BME280;47227;46.752;23.576;2022-12-11T12:04:00;94424.56;;;6.60;63.64
61357;BME280;47227;46.752;23.576;2022-12-11T12:06:39;94416.95;;;6.17;64.69
61357;BME280;47227;46.752;23.576;2022-12-11T12:09:42;94407.89;;;5.97;65.33
61357;BME280;47227;46.752;23.576;2022-12-11T12:15:21;94402.10;;;5.34;67.82
61357;BME280;47227;46.752;23.576;2022-12-11T12:18:05;94407.84;;;5.05;68.58
61357;BME280;47227;46.752;23.576;2022-12-11T12:20:54;94412.97;;;4.93;69.18
61357;BME280;47227;46.752;23.576;2022-12-11T12:23:48;94420.17;;;4.84;69.61
61357;BME280;47227;46.752;23.576;2022-12-11T12:26:27;94432.48;;;4.92;69.23
61357;BME280;47227;46.752;23.576;2022-12-11T12:32:05;94443.77;;;4.88;69.34
61357;BME280;47227;46.752;23.576;2022-12-11T12:34:48;94458.34;;;4.95;69.31
61357;BME280;47227;46.752;23.576;2022-12-11T12:37:43;94454.28;;;4.98;69.62
61357;BME280;47227;46.752;23.576;2022-12-11T12:40:34;94464.71;;;4.93;69.28
61357;BME280;47227;46.752;23.576;2022-12-11T12:43:30;94465.90;;;4.91;69.09
61357;BME280;47227;46.752;23.576;2022-12-11T12:49:01;94466.65;;;4.51;69.93
61357;BME280;47227;46.752;23.576;2022-12-11T12:51:30;94467.58;;;4.38;70.87
61357;BME280;47227;46.752;23.576;2022-12-11T12:54:00;94466.96;;;4.40;71.23
61357;BME280;47227;46.752;23.576;2022-12-11T12:56:39;94472.60;;;4.36;70.79
61357;BME280;47227;46.752;23.576;2022-12-11T12:59:18;94477.54;;;4.37;71.04
61357;BME280;47227;46.752;23.576;2022-12-11T13:01:49;94486.02;;;4.44;70.73
61357;BME280;47227;46.752;23.576;2022-12-11T13:04:41;94485.75;;;4.42;71.34
61357;BME280;47227;46.752;23.576;2022-12-11T13:07:28;94484.41;;;4.32;72.43
61357;BME280;47227;46.752;23.576;2022-12-11T13:13:04;94484.77;;;4.15;72.43
61357;BME280;47227;46.752;23.576;2022-12-11T13:15:36;94484.72;;;4.05;72.68
61357;BME280;47227;46.752;23.576;2022-12-11T13:18:33;94491.48;;;4.17;72.65
61357;BME280;47227;46.752;23.576;2022-12-11T13:21:24;94502.95;;;4.34;72.22
61357;BME280;47227;46.752;23.576;2022-12-11T13:23:53;94510.69;;;4.43;71.49
61357;BME280;47227;46.752;23.576;2022-12-11T13:26:30;94512.98;;;4.46;71.42
61357;BME280;47227;46.752;23.576;2022-12-11T13:28:58;94517.29;;;4.27;70.90
61357;BME280;47227;46.752;23.576;2022-12-11T13:31:32;94512.48;;;4.12;71.17
61357;BME280;47227;46.752;23.576;2022-12-11T13:34:07;94513.88;;;4.05;71.33
61357;BME280;47227;46.752;23.576;2022-12-11T13:36:44;94509.96;;;4.01;71.89
61357;BME280;47227;46.752;23.576;2022-12-11T13:39:19;94509.86;;;3.81;72.44
61357;BME280;47227;46.752;23.576;2022-12-11T13:42:06;94509.86;;;3.74;72.89
61357;BME280;47227;46.752;23.576;2022-12-11T13:44:41;94520.09;;;3.63;73.18
61357;BME280;47227;46.752;23.576;2022-12-11T13:47:15;94523.93;;;3.58;72.99
61357;BME280;47227;46.752;23.576;2022-12-11T13:49:49;94520.27;;;3.54;73.74